createdAt,value
2022-12-25T00:00:02.316Z,1012.297
2022-12-25T00:07:01.863Z,1012.305
2022-12-25T00:14:01.429Z,1012.305
2022-12-25T00:21:02.072Z,1012.227
2022-12-25T00:28:02.071Z,1012.191
2022-12-25T00:35:01.536Z,1012.227
2022-12-25T00:42:01.418Z,1012.227
2022-12-25T00:49:01.513Z,1012.312
2022-12-25T00:56:01.975Z,1012.346
2022-12-25T01:00:01.505Z,1012.346
2022-12-25T01:07:02.018Z,1012.471
2022-12-25T01:14:01.691Z,1012.288
2022-12-25T01:21:01.548Z,1012.288
2022-12-25T01:28:01.420Z,1012.344
2022-12-25T01:35:01.993Z,1012.168
2022-12-25T01:42:01.911Z,1012.168
2022-12-25T01:49:02.571Z,1012.28
2022-12-25T01:56:01.934Z,1012.101
2022-12-25T02:00:02.577Z,1012.101
2022-12-25T02:07:01.912Z,1012.181
2022-12-25T02:14:01.477Z,1012.19
2022-12-25T02:21:01.702Z,1012.328
2022-12-25T02:28:01.587Z,1012.328
2022-12-25T02:35:02.035Z,1012.386
2022-12-25T02:42:02.179Z,1012.554
2022-12-25T02:49:01.713Z,1012.554
2022-12-25T02:56:01.724Z,1012.42
2022-12-25T03:00:02.311Z,1012.272
2022-12-25T03:07:01.850Z,1012.272
2022-12-25T03:14:01.897Z,1011.906
2022-12-25T03:21:01.738Z,1012.061
2022-12-25T03:28:01.854Z,1012.061
2022-12-25T03:35:02.047Z,1012.133
2022-12-25T03:42:02.133Z,1011.978
2022-12-25T03:49:02.093Z,1011.6
2022-12-25T03:56:02.143Z,1011.6
2022-12-25T04:00:01.750Z,1011.342
2022-12-25T04:07:02.081Z,1011.347
2022-12-25T04:14:01.886Z,1011.347
2022-12-25T04:21:01.437Z,1011.678
2022-12-25T04:28:01.482Z,1011.482
2022-12-25T04:35:02.061Z,1011.482
2022-12-25T04:42:01.358Z,1011.689
2022-12-25T04:49:02.235Z,1011.538
2022-12-25T04:56:02.052Z,1011.453
2022-12-25T05:00:01.651Z,1011.453
2022-12-25T05:07:01.881Z,1011.406
2022-12-25T05:14:01.987Z,1011.406
2022-12-25T05:21:01.617Z,1011.477
2022-12-25T05:28:01.578Z,1011.369
2022-12-25T05:35:01.705Z,1011.05
2022-12-25T05:42:02.290Z,1011.05
2022-12-25T05:49:01.555Z,1011.069
2022-12-25T05:56:01.711Z,1011.189
2022-12-25T06:00:02.328Z,1011.189
2022-12-25T06:07:01.308Z,1011.196
2022-12-25T06:14:01.671Z,1010.822
2022-12-25T06:21:02.136Z,1010.822
2022-12-25T06:28:01.489Z,1010.855
2022-12-25T06:35:01.815Z,1010.608
2022-12-25T06:42:02.022Z,1010.43
2022-12-25T06:49:01.646Z,1010.43
2022-12-25T06:56:01.407Z,1010.311
2022-12-25T07:00:02.011Z,1010.311
2022-12-25T07:07:08.037Z,1010.412
2022-12-25T07:14:01.743Z,1010.13
2022-12-25T07:21:02.119Z,1009.835
2022-12-25T07:28:02.217Z,1009.835
2022-12-25T07:35:01.584Z,1009.789
2022-12-25T07:42:01.358Z,1009.766
2022-12-25T07:49:01.831Z,1009.766
2022-12-25T07:56:01.870Z,1009.45
2022-12-25T08:00:02.608Z,1009.812
2022-12-25T08:07:02.050Z,1009.812
2022-12-25T08:14:01.780Z,1009.615
2022-12-25T08:21:02.039Z,1009.723
2022-12-25T08:28:01.413Z,1009.689
2022-12-25T08:35:02.041Z,1009.689
2022-12-25T08:42:01.981Z,1009.107
2022-12-25T08:49:02.097Z,1010.041
2022-12-25T08:56:01.345Z,1010.041
2022-12-25T09:00:01.910Z,1009.857
2022-12-25T09:07:01.469Z,1009.642
2022-12-25T09:14:01.462Z,1009.642
2022-12-25T09:21:01.391Z,1009.625
2022-12-25T09:28:01.877Z,1009.941
2022-12-25T09:35:01.824Z,1009.941
2022-12-25T09:42:02.036Z,1010.066
2022-12-25T09:49:01.863Z,1010.185
2022-12-25T09:56:02.157Z,1010.312
2022-12-25T10:00:01.715Z,1010.312
2022-12-25T10:07:02.004Z,1009.875
2022-12-25T10:14:02.103Z,1009.875
2022-12-25T10:21:02.179Z,1009.903
2022-12-25T10:28:02.021Z,1009.564
2022-12-25T10:35:02.264Z,1009.488
2022-12-25T10:42:02.063Z,1009.488
2022-12-25T10:49:01.775Z,1009.258
2022-12-25T10:56:01.363Z,1009.195
2022-12-25T11:00:01.962Z,1009.195
2022-12-25T11:07:01.686Z,1009.154
2022-12-25T11:14:02.040Z,1008.747
2022-12-25T11:21:01.354Z,1008.747
2022-12-25T11:28:01.416Z,1008.542
2022-12-25T11:35:02.186Z,1007.91
2022-12-25T11:42:02.080Z,1007.719
2022-12-25T11:49:02.157Z,1007.719
2022-12-25T11:56:01.470Z,1007.655
2022-12-25T12:00:02.101Z,1007.655
2022-12-25T12:07:01.346Z,1007.433
2022-12-25T12:14:02.247Z,1007.585
2022-12-25T12:21:01.990Z,1007.459
2022-12-25T12:28:05.704Z,1007.459
2022-12-25T12:35:02.312Z,1007.343
2022-12-25T12:42:02.287Z,1007.265
2022-12-25T12:49:02.161Z,1007.132
2022-12-25T12:56:02.278Z,1007.132
2022-12-25T13:00:08.620Z,1007.067
2022-12-25T13:07:01.966Z,1007.067
2022-12-25T13:14:02.172Z,1007.004
2022-12-25T13:21:01.718Z,1006.743
2022-12-25T13:28:01.340Z,1006.638
2022-12-25T13:35:01.736Z,1006.638
2022-12-25T13:42:02.088Z,1006.597
2022-12-25T13:49:01.533Z,1006.786
2022-12-25T13:56:01.548Z,1006.786
2022-12-25T14:00:02.236Z,1006.682
2022-12-25T14:07:02.104Z,1006.646
2022-12-25T14:14:01.443Z,1006.646
2022-12-25T14:21:01.593Z,1006.645
2022-12-25T14:28:01.799Z,1006.77
2022-12-25T14:35:02.640Z,1006.77
2022-12-25T14:42:01.978Z,1006.576
2022-12-25T14:49:01.349Z,1006.582
2022-12-25T14:56:02.071Z,1006.587
2022-12-25T15:00:01.678Z,1006.587
2022-12-25T15:07:02.194Z,1006.383
2022-12-25T15:14:02.188Z,1006.35
2022-12-25T15:21:01.397Z,1006.35
2022-12-25T15:28:01.450Z,1006.201
2022-12-25T15:35:01.870Z,1006.146
2022-12-25T15:42:02.057Z,1006.146
2022-12-25T15:49:02.128Z,1006.003
2022-12-25T15:56:02.139Z,1005.992
2022-12-25T16:00:01.873Z,1005.992
2022-12-25T16:07:01.377Z,1005.932
2022-12-25T16:14:01.794Z,1005.866
2022-12-25T16:21:01.730Z,1005.866
2022-12-25T16:28:01.465Z,1005.814
2022-12-25T16:35:02.434Z,1005.745
2022-12-25T16:42:01.732Z,1005.852
2022-12-25T16:49:01.966Z,1005.852
2022-12-25T16:56:01.385Z,1005.753
2022-12-25T17:00:01.918Z,1005.753
2022-12-25T17:07:01.504Z,1005.777
2022-12-25T17:14:01.447Z,1005.879
2022-12-25T17:21:02.208Z,1006.088
2022-12-25T17:28:01.711Z,1006.088
2022-12-25T17:35:01.584Z,1005.951
2022-12-25T17:42:01.348Z,1005.985
2022-12-25T17:49:01.845Z,1006.014
2022-12-25T17:56:02.167Z,1006.014
2022-12-25T18:00:01.717Z,1005.75
2022-12-25T18:07:02.013Z,1005.75
2022-12-25T18:14:01.757Z,1005.957
2022-12-25T18:21:02.233Z,1005.862
2022-12-25T18:28:02.868Z,1005.765
2022-12-25T18:35:02.291Z,1005.765
2022-12-25T18:42:01.466Z,1005.904
2022-12-25T18:49:01.485Z,1005.912
2022-12-25T18:56:01.529Z,1005.912
2022-12-25T19:00:02.122Z,1006.165
2022-12-25T19:07:01.471Z,1006.102
2022-12-25T19:14:01.387Z,1006.102
2022-12-25T19:21:02.056Z,1005.859
2022-12-25T19:28:01.329Z,1005.244
2022-12-25T19:35:02.196Z,1006.158
2022-12-25T19:42:01.546Z,1006.158
2022-12-25T19:49:01.959Z,1006.413
2022-12-25T19:56:01.516Z,1006.257
2022-12-25T20:00:02.155Z,1006.257
2022-12-25T20:07:01.679Z,1006.185
2022-12-25T20:14:01.640Z,1006.134
2022-12-25T20:21:01.921Z,1006.134
2022-12-25T20:28:01.732Z,1006.211
2022-12-25T20:35:02.055Z,1006.029
2022-12-25T20:42:02.617Z,1006.029
2022-12-25T20:49:02.161Z,1006.06
2022-12-25T20:56:01.998Z,1006.16
2022-12-25T21:00:01.583Z,1006.16
2022-12-25T21:07:02.222Z,1005.899
2022-12-25T21:14:01.555Z,1006.262
2022-12-25T21:21:01.368Z,1006.146
2022-12-25T21:28:01.947Z,1006.146
2022-12-25T21:35:01.930Z,1006.247
2022-12-25T21:42:02.192Z,1006.288
2022-12-25T21:49:02.346Z,1006.288
2022-12-25T21:56:01.394Z,1006.408
2022-12-25T22:00:01.975Z,1006.815
2022-12-25T22:07:02.087Z,1006.815
2022-12-25T22:14:02.178Z,1006.823
2022-12-25T22:21:02.115Z,1006.876
2022-12-25T22:28:01.378Z,1006.876
2022-12-25T22:35:02.131Z,1006.952
2022-12-25T22:42:01.623Z,1007.119
2022-12-25T22:49:01.878Z,1007.329
2022-12-25T22:56:01.552Z,1007.329
2022-12-25T23:00:02.447Z,1007.239
2022-12-25T23:07:01.844Z,1007.239
2022-12-25T23:14:02.269Z,1007.256
2022-12-25T23:21:02.057Z,1007.486
2022-12-25T23:28:01.352Z,1007.204
2022-12-25T23:35:02.063Z,1007.204
2022-12-25T23:42:02.214Z,1007.138
2022-12-25T23:49:02.183Z,1007.226
2022-12-25T23:56:02.257Z,1007.186
